sensor_id;sensor_type;location;lat;lon;timestamp;P1;durP1;ratioP1;P2;durP2;ratioP2
8831;SDS011;4452;50.756;4.472;2022-12-07T00:01:23;66.95;;;30.27;;
8831;SDS011;4452;50.756;4.472;2022-12-07T00:03:54;57.92;;;29.88;;
8831;SDS011;4452;50.756;4.472;2022-12-07T00:06:25;62.10;;;29.65;;
8831;SDS011;4452;50.756;4.472;2022-12-07T00:08:51;69.97;;;34.65;;
8831;SDS011;4452;50.756;4.472;2022-12-07T00:11:20;66.20;;;30.77;;
8831;SDS011;4452;50.756;4.472;2022-12-07T00:13:50;66.82;;;31.55;;
8831;SDS011;4452;50.756;4.472;2022-12-07T00:16:18;56.45;;;26.58;;
8831;SDS011;4452;50.756;4.472;2022-12-07T00:18:45;68.90;;;30.45;;
8831;SDS011;4452;50.756;4.472;2022-12-07T00:21:15;71.38;;;34.53;;
8831;SDS011;4452;50.756;4.472;2022-12-07T00:23:44;63.23;;;31.00;;
8831;SDS011;4452;50.756;4.472;2022-12-07T00:26:11;75.03;;;34.22;;
8831;SDS011;4452;50.756;4.472;2022-12-07T00:28:38;77.28;;;33.72;;
8831;SDS011;4452;50.756;4.472;2022-12-07T00:31:08;64.05;;;27.80;;
8831;SDS011;4452;50.756;4.472;2022-12-07T00:33:35;77.25;;;33.83;;
8831;SDS011;4452;50.756;4.472;2022-12-07T00:36:03;76.78;;;35.70;;
8831;SDS011;4452;50.756;4.472;2022-12-07T00:38:32;72.50;;;34.72;;
8831;SDS011;4452;50.756;4.472;2022-12-07T00:41:00;74.93;;;33.17;;
8831;SDS011;4452;50.756;4.472;2022-12-07T00:43:28;79.85;;;38.58;;
8831;SDS011;4452;50.756;4.472;2022-12-07T00:45:54;84.15;;;38.50;;
8831;SDS011;4452;50.756;4.472;2022-12-07T00:48:20;70.32;;;33.45;;
8831;SDS011;4452;50.756;4.472;2022-12-07T00:50:47;75.40;;;33.70;;
8831;SDS011;4452;50.756;4.472;2022-12-07T00:53:12;82.25;;;31.98;;
8831;SDS011;4452;50.756;4.472;2022-12-07T00:55:38;89.97;;;39.03;;
8831;SDS011;4452;50.756;4.472;2022-12-07T00:58:04;73.40;;;34.25;;
8831;SDS011;4452;50.756;4.472;2022-12-07T01:00:30;86.18;;;36.78;;
8831;SDS011;4452;50.756;4.472;2022-12-07T01:02:55;91.20;;;33.85;;
8831;SDS011;4452;50.756;4.472;2022-12-07T01:05:21;89.28;;;35.78;;
8831;SDS011;4452;50.756;4.472;2022-12-07T01:07:47;80.85;;;33.78;;
8831;SDS011;4452;50.756;4.472;2022-12-07T01:10:13;68.20;;;28.75;;
8831;SDS011;4452;50.756;4.472;2022-12-07T01:12:39;87.13;;;35.85;;
8831;SDS011;4452;50.756;4.472;2022-12-07T01:15:05;79.43;;;35.08;;
8831;SDS011;4452;50.756;4.472;2022-12-07T01:17:32;74.90;;;33.13;;
8831;SDS011;4452;50.756;4.472;2022-12-07T01:19:58;86.30;;;35.50;;
8831;SDS011;4452;50.756;4.472;2022-12-07T01:22:24;95.85;;;40.85;;
8831;SDS011;4452;50.756;4.472;2022-12-07T01:24:50;93.05;;;39.55;;
8831;SDS011;4452;50.756;4.472;2022-12-07T01:27:15;83.47;;;32.53;;
8831;SDS011;4452;50.756;4.472;2022-12-07T01:29:41;93.80;;;37.70;;
8831;SDS011;4452;50.756;4.472;2022-12-07T01:32:07;87.63;;;38.67;;
8831;SDS011;4452;50.756;4.472;2022-12-07T01:34:32;103.82;;;40.50;;
8831;SDS011;4452;50.756;4.472;2022-12-07T01:36:58;93.57;;;35.13;;
8831;SDS011;4452;50.756;4.472;2022-12-07T01:39:24;86.45;;;35.75;;
8831;SDS011;4452;50.756;4.472;2022-12-07T01:41:50;61.80;;;28.48;;
8831;SDS011;4452;50.756;4.472;2022-12-07T01:44:25;93.82;;;40.90;;
8831;SDS011;4452;50.756;4.472;2022-12-07T01:46:56;100.03;;;38.70;;
8831;SDS011;4452;50.756;4.472;2022-12-07T01:49:34;91.90;;;36.27;;
8831;SDS011;4452;50.756;4.472;2022-12-07T01:54:33;91.07;;;35.38;;
8831;SDS011;4452;50.756;4.472;2022-12-07T01:56:59;88.20;;;34.80;;
8831;SDS011;4452;50.756;4.472;2022-12-07T01:59:26;93.47;;;39.03;;
8831;SDS011;4452;50.756;4.472;2022-12-07T02:01:53;78.75;;;32.70;;
8831;SDS011;4452;50.756;4.472;2022-12-07T02:04:21;100.18;;;40.83;;
8831;SDS011;4452;50.756;4.472;2022-12-07T02:06:47;88.95;;;35.47;;
8831;SDS011;4452;50.756;4.472;2022-12-07T02:09:14;98.15;;;40.53;;
8831;SDS011;4452;50.756;4.472;2022-12-07T02:11:40;84.70;;;37.03;;
8831;SDS011;4452;50.756;4.472;2022-12-07T02:14:06;93.30;;;36.92;;
8831;SDS011;4452;50.756;4.472;2022-12-07T02:16:43;94.72;;;41.05;;
8831;SDS011;4452;50.756;4.472;2022-12-07T02:24:54;101.85;;;40.80;;
8831;SDS011;4452;50.756;4.472;2022-12-07T02:27:37;111.53;;;41.78;;
8831;SDS011;4452;50.756;4.472;2022-12-07T02:30:17;84.13;;;34.30;;
8831;SDS011;4452;50.756;4.472;2022-12-07T02:33:04;70.03;;;32.10;;
8831;SDS011;4452;50.756;4.472;2022-12-07T02:35:39;95.10;;;39.88;;
8831;SDS011;4452;50.756;4.472;2022-12-07T02:38:20;93.28;;;38.35;;
8831;SDS011;4452;50.756;4.472;2022-12-07T02:40:53;56.95;;;25.70;;
8831;SDS011;4452;50.756;4.472;2022-12-07T02:45:50;91.70;;;38.85;;
8831;SDS011;4452;50.756;4.472;2022-12-07T02:48:18;87.75;;;36.55;;
8831;SDS011;4452;50.756;4.472;2022-12-07T02:50:52;88.38;;;37.63;;
8831;SDS011;4452;50.756;4.472;2022-12-07T02:53:35;73.95;;;34.78;;
8831;SDS011;4452;50.756;4.472;2022-12-07T02:56:05;73.38;;;34.15;;
8831;SDS011;4452;50.756;4.472;2022-12-07T02:58:43;79.78;;;34.50;;
8831;SDS011;4452;50.756;4.472;2022-12-07T03:01:28;78.18;;;35.58;;
8831;SDS011;4452;50.756;4.472;2022-12-07T03:06:43;80.65;;;32.97;;
8831;SDS011;4452;50.756;4.472;2022-12-07T03:09:32;75.75;;;32.70;;
8831;SDS011;4452;50.756;4.472;2022-12-07T03:14:55;80.38;;;34.95;;
8831;SDS011;4452;50.756;4.472;2022-12-07T03:17:31;76.10;;;34.60;;
8831;SDS011;4452;50.756;4.472;2022-12-07T03:20:03;76.32;;;33.78;;
8831;SDS011;4452;50.756;4.472;2022-12-07T03:22:31;77.47;;;33.40;;
8831;SDS011;4452;50.756;4.472;2022-12-07T03:25:01;78.00;;;32.95;;
8831;SDS011;4452;50.756;4.472;2022-12-07T03:27:37;76.65;;;30.08;;
8831;SDS011;4452;50.756;4.472;2022-12-07T03:30:10;79.30;;;33.53;;
8831;SDS011;4452;50.756;4.472;2022-12-07T03:32:45;75.75;;;33.75;;
8831;SDS011;4452;50.756;4.472;2022-12-07T03:35:33;74.07;;;33.28;;
8831;SDS011;4452;50.756;4.472;2022-12-07T03:41:03;60.83;;;30.15;;
8831;SDS011;4452;50.756;4.472;2022-12-07T03:43:48;67.90;;;28.60;;
8831;SDS011;4452;50.756;4.472;2022-12-07T03:46:35;71.75;;;29.48;;
8831;SDS011;4452;50.756;4.472;2022-12-07T03:49:32;75.20;;;32.17;;
8831;SDS011;4452;50.756;4.472;2022-12-07T03:55:11;59.42;;;27.60;;
8831;SDS011;4452;50.756;4.472;2022-12-07T03:57:34;56.67;;;23.60;;
8831;SDS011;4452;50.756;4.472;2022-12-07T04:00:02;73.82;;;29.38;;
8831;SDS011;4452;50.756;4.472;2022-12-07T04:02:30;43.08;;;18.30;;
8831;SDS011;4452;50.756;4.472;2022-12-07T04:04:57;65.55;;;27.73;;
8831;SDS011;4452;50.756;4.472;2022-12-07T04:07:23;71.60;;;30.50;;
8831;SDS011;4452;50.756;4.472;2022-12-07T04:09:49;68.80;;;31.50;;
8831;SDS011;4452;50.756;4.472;2022-12-07T04:12:15;79.68;;;34.03;;
8831;SDS011;4452;50.756;4.472;2022-12-07T04:14:41;71.20;;;30.63;;
8831;SDS011;4452;50.756;4.472;2022-12-07T04:17:06;59.67;;;25.98;;
8831;SDS011;4452;50.756;4.472;2022-12-07T04:19:33;64.60;;;29.13;;
8831;SDS011;4452;50.756;4.472;2022-12-07T04:22:00;73.72;;;29.83;;
8831;SDS011;4452;50.756;4.472;2022-12-07T04:24:27;70.38;;;30.60;;
8831;SDS011;4452;50.756;4.472;2022-12-07T04:26:53;71.78;;;30.02;;
8831;SDS011;4452;50.756;4.472;2022-12-07T04:29:19;70.80;;;29.98;;
8831;SDS011;4452;50.756;4.472;2022-12-07T04:31:45;63.47;;;26.90;;
8831;SDS011;4452;50.756;4.472;2022-12-07T04:34:11;70.55;;;27.70;;
8831;SDS011;4452;50.756;4.472;2022-12-07T04:36:37;67.63;;;29.80;;
8831;SDS011;4452;50.756;4.472;2022-12-07T04:39:04;72.45;;;31.40;;
8831;SDS011;4452;50.756;4.472;2022-12-07T04:41:31;56.13;;;24.73;;
8831;SDS011;4452;50.756;4.472;2022-12-07T04:43:57;72.50;;;33.83;;
8831;SDS011;4452;50.756;4.472;2022-12-07T04:46:26;76.82;;;33.13;;
8831;SDS011;4452;50.756;4.472;2022-12-07T04:48:53;71.55;;;26.67;;
8831;SDS011;4452;50.756;4.472;2022-12-07T04:51:21;81.75;;;34.38;;
8831;SDS011;4452;50.756;4.472;2022-12-07T04:53:48;59.88;;;24.75;;
8831;SDS011;4452;50.756;4.472;2022-12-07T04:56:15;69.82;;;29.90;;
8831;SDS011;4452;50.756;4.472;2022-12-07T04:58:41;86.97;;;34.72;;
8831;SDS011;4452;50.756;4.472;2022-12-07T05:01:08;82.20;;;34.10;;
8831;SDS011;4452;50.756;4.472;2022-12-07T05:03:38;96.95;;;40.53;;
8831;SDS011;4452;50.756;4.472;2022-12-07T05:06:04;98.90;;;38.83;;
8831;SDS011;4452;50.756;4.472;2022-12-07T05:08:30;92.78;;;37.20;;
8831;SDS011;4452;50.756;4.472;2022-12-07T05:10:57;84.15;;;31.55;;
8831;SDS011;4452;50.756;4.472;2022-12-07T05:13:23;88.63;;;34.70;;
8831;SDS011;4452;50.756;4.472;2022-12-07T05:15:48;85.00;;;32.28;;
8831;SDS011;4452;50.756;4.472;2022-12-07T05:18:14;82.78;;;33.45;;
8831;SDS011;4452;50.756;4.472;2022-12-07T05:20:41;86.43;;;35.53;;
8831;SDS011;4452;50.756;4.472;2022-12-07T05:23:07;74.13;;;28.38;;
8831;SDS011;4452;50.756;4.472;2022-12-07T05:25:33;87.93;;;34.00;;
8831;SDS011;4452;50.756;4.472;2022-12-07T05:27:59;88.07;;;36.53;;
8831;SDS011;4452;50.756;4.472;2022-12-07T05:30:25;90.63;;;36.22;;
8831;SDS011;4452;50.756;4.472;2022-12-07T05:32:51;84.10;;;32.50;;
8831;SDS011;4452;50.756;4.472;2022-12-07T05:35:17;76.97;;;29.55;;
8831;SDS011;4452;50.756;4.472;2022-12-07T05:37:43;109.80;;;40.78;;
8831;SDS011;4452;50.756;4.472;2022-12-07T05:40:10;85.90;;;32.50;;
8831;SDS011;4452;50.756;4.472;2022-12-07T05:42:36;92.57;;;39.13;;
8831;SDS011;4452;50.756;4.472;2022-12-07T05:45:02;91.50;;;36.00;;
8831;SDS011;4452;50.756;4.472;2022-12-07T05:47:28;87.75;;;34.95;;
8831;SDS011;4452;50.756;4.472;2022-12-07T05:49:54;80.82;;;33.30;;
8831;SDS011;4452;50.756;4.472;2022-12-07T05:52:19;99.78;;;40.42;;
8831;SDS011;4452;50.756;4.472;2022-12-07T05:54:45;101.22;;;38.92;;
8831;SDS011;4452;50.756;4.472;2022-12-07T05:57:10;94.75;;;36.42;;
8831;SDS011;4452;50.756;4.472;2022-12-07T05:59:36;78.35;;;31.90;;
8831;SDS011;4452;50.756;4.472;2022-12-07T06:02:06;63.35;;;28.25;;
8831;SDS011;4452;50.756;4.472;2022-12-07T06:04:34;72.47;;;27.92;;
8831;SDS011;4452;50.756;4.472;2022-12-07T06:07:05;88.90;;;35.42;;
8831;SDS011;4452;50.756;4.472;2022-12-07T06:09:31;98.65;;;36.80;;
8831;SDS011;4452;50.756;4.472;2022-12-07T06:11:57;93.65;;;35.20;;
8831;SDS011;4452;50.756;4.472;2022-12-07T06:14:42;91.32;;;36.60;;
8831;SDS011;4452;50.756;4.472;2022-12-07T06:17:08;87.85;;;35.88;;
8831;SDS011;4452;50.756;4.472;2022-12-07T06:19:34;96.15;;;39.55;;
8831;SDS011;4452;50.756;4.472;2022-12-07T06:22:00;106.57;;;39.00;;
8831;SDS011;4452;50.756;4.472;2022-12-07T06:24:28;89.40;;;36.78;;
8831;SDS011;4452;50.756;4.472;2022-12-07T06:26:53;91.43;;;36.72;;
8831;SDS011;4452;50.756;4.472;2022-12-07T06:29:19;96.95;;;38.00;;
8831;SDS011;4452;50.756;4.472;2022-12-07T06:31:45;87.07;;;30.63;;
8831;SDS011;4452;50.756;4.472;2022-12-07T06:34:12;89.60;;;35.47;;
8831;SDS011;4452;50.756;4.472;2022-12-07T06:36:43;87.88;;;35.97;;
8831;SDS011;4452;50.756;4.472;2022-12-07T06:39:09;86.18;;;34.38;;
8831;SDS011;4452;50.756;4.472;2022-12-07T06:41:36;77.85;;;31.35;;
8831;SDS011;4452;50.756;4.472;2022-12-07T06:44:05;74.50;;;29.75;;
8831;SDS011;4452;50.756;4.472;2022-12-07T06:46:32;97.72;;;36.88;;
8831;SDS011;4452;50.756;4.472;2022-12-07T06:49:00;93.13;;;35.28;;
8831;SDS011;4452;50.756;4.472;2022-12-07T06:51:26;77.38;;;30.27;;
8831;SDS011;4452;50.756;4.472;2022-12-07T06:53:52;81.78;;;32.95;;
8831;SDS011;4452;50.756;4.472;2022-12-07T06:56:17;89.63;;;35.70;;
8831;SDS011;4452;50.756;4.472;2022-12-07T06:58:43;92.57;;;35.83;;
8831;SDS011;4452;50.756;4.472;2022-12-07T07:01:12;83.82;;;34.83;;
8831;SDS011;4452;50.756;4.472;2022-12-07T07:03:40;86.68;;;35.28;;
8831;SDS011;4452;50.756;4.472;2022-12-07T07:06:06;80.18;;;32.45;;
8831;SDS011;4452;50.756;4.472;2022-12-07T07:08:33;63.67;;;28.42;;
8831;SDS011;4452;50.756;4.472;2022-12-07T07:10:59;90.82;;;34.20;;
8831;SDS011;4452;50.756;4.472;2022-12-07T07:13:25;88.95;;;33.65;;
8831;SDS011;4452;50.756;4.472;2022-12-07T07:15:51;96.10;;;37.22;;
8831;SDS011;4452;50.756;4.472;2022-12-07T07:18:17;90.72;;;34.28;;
8831;SDS011;4452;50.756;4.472;2022-12-07T07:20:43;83.45;;;34.03;;
8831;SDS011;4452;50.756;4.472;2022-12-07T07:23:11;90.25;;;33.65;;
8831;SDS011;4452;50.756;4.472;2022-12-07T07:25:38;100.50;;;36.92;;
8831;SDS011;4452;50.756;4.472;2022-12-07T07:28:06;92.50;;;35.97;;
8831;SDS011;4452;50.756;4.472;2022-12-07T07:30:38;88.53;;;34.72;;
8831;SDS011;4452;50.756;4.472;2022-12-07T07:33:06;87.30;;;36.40;;
8831;SDS011;4452;50.756;4.472;2022-12-07T07:35:34;87.78;;;35.45;;
8831;SDS011;4452;50.756;4.472;2022-12-07T07:38:00;82.57;;;32.22;;
8831;SDS011;4452;50.756;4.472;2022-12-07T07:40:26;85.00;;;32.78;;
8831;SDS011;4452;50.756;4.472;2022-12-07T07:42:52;60.72;;;23.35;;
8831;SDS011;4452;50.756;4.472;2022-12-07T07:45:19;86.53;;;34.42;;
8831;SDS011;4452;50.756;4.472;2022-12-07T07:47:46;81.10;;;33.22;;
8831;SDS011;4452;50.756;4.472;2022-12-07T07:50:12;84.97;;;31.17;;
8831;SDS011;4452;50.756;4.472;2022-12-07T07:52:38;87.47;;;34.83;;
8831;SDS011;4452;50.756;4.472;2022-12-07T07:55:04;72.55;;;31.45;;
8831;SDS011;4452;50.756;4.472;2022-12-07T07:57:32;86.13;;;33.85;;
8831;SDS011;4452;50.756;4.472;2022-12-07T07:59:58;84.45;;;33.28;;
8831;SDS011;4452;50.756;4.472;2022-12-07T08:02:23;80.35;;;31.42;;
8831;SDS011;4452;50.756;4.472;2022-12-07T08:04:49;82.85;;;30.13;;
8831;SDS011;4452;50.756;4.472;2022-12-07T08:07:15;81.00;;;33.55;;
8831;SDS011;4452;50.756;4.472;2022-12-07T08:09:41;76.60;;;29.73;;
8831;SDS011;4452;50.756;4.472;2022-12-07T08:12:06;85.78;;;33.72;;
8831;SDS011;4452;50.756;4.472;2022-12-07T08:14:32;69.72;;;28.33;;
8831;SDS011;4452;50.756;4.472;2022-12-07T08:16:59;73.90;;;29.52;;
8831;SDS011;4452;50.756;4.472;2022-12-07T08:19:28;64.65;;;24.48;;
8831;SDS011;4452;50.756;4.472;2022-12-07T08:21:56;78.95;;;31.38;;
8831;SDS011;4452;50.756;4.472;2022-12-07T08:24:23;88.05;;;32.53;;
8831;SDS011;4452;50.756;4.472;2022-12-07T08:26:50;71.82;;;27.48;;
8831;SDS011;4452;50.756;4.472;2022-12-07T08:29:16;64.63;;;26.88;;
8831;SDS011;4452;50.756;4.472;2022-12-07T08:31:42;73.18;;;27.55;;
8831;SDS011;4452;50.756;4.472;2022-12-07T08:34:09;75.13;;;29.00;;
8831;SDS011;4452;50.756;4.472;2022-12-07T08:36:36;66.68;;;26.63;;
8831;SDS011;4452;50.756;4.472;2022-12-07T08:39:02;78.03;;;27.25;;
8831;SDS011;4452;50.756;4.472;2022-12-07T08:41:28;64.28;;;24.67;;
8831;SDS011;4452;50.756;4.472;2022-12-07T08:43:53;55.78;;;22.33;;
8831;SDS011;4452;50.756;4.472;2022-12-07T08:46:20;65.18;;;24.30;;
8831;SDS011;4452;50.756;4.472;2022-12-07T08:51:18;60.03;;;23.90;;
8831;SDS011;4452;50.756;4.472;2022-12-07T08:53:44;57.22;;;23.40;;
8831;SDS011;4452;50.756;4.472;2022-12-07T08:56:10;54.10;;;23.13;;
8831;SDS011;4452;50.756;4.472;2022-12-07T08:58:37;54.88;;;20.15;;
8831;SDS011;4452;50.756;4.472;2022-12-07T09:01:04;60.30;;;25.00;;
8831;SDS011;4452;50.756;4.472;2022-12-07T09:03:30;61.72;;;23.60;;
8831;SDS011;4452;50.756;4.472;2022-12-07T09:05:56;55.17;;;22.17;;
8831;SDS011;4452;50.756;4.472;2022-12-07T09:08:23;64.35;;;22.55;;
8831;SDS011;4452;50.756;4.472;2022-12-07T09:10:54;61.35;;;23.33;;
8831;SDS011;4452;50.756;4.472;2022-12-07T09:13:19;55.50;;;22.77;;
8831;SDS011;4452;50.756;4.472;2022-12-07T09:15:45;44.65;;;17.95;;
8831;SDS011;4452;50.756;4.472;2022-12-07T09:18:11;54.80;;;23.02;;
8831;SDS011;4452;50.756;4.472;2022-12-07T09:20:36;58.60;;;22.13;;
8831;SDS011;4452;50.756;4.472;2022-12-07T09:23:02;53.97;;;23.33;;
8831;SDS011;4452;50.756;4.472;2022-12-07T09:25:30;55.70;;;21.25;;
8831;SDS011;4452;50.756;4.472;2022-12-07T09:27:56;48.78;;;20.15;;
8831;SDS011;4452;50.756;4.472;2022-12-07T09:30:23;52.35;;;21.10;;
8831;SDS011;4452;50.756;4.472;2022-12-07T09:32:48;45.90;;;19.63;;
8831;SDS011;4452;50.756;4.472;2022-12-07T09:35:14;53.00;;;20.20;;
8831;SDS011;4452;50.756;4.472;2022-12-07T09:37:40;47.03;;;19.63;;
8831;SDS011;4452;50.756;4.472;2022-12-07T09:40:06;51.30;;;20.80;;
8831;SDS011;4452;50.756;4.472;2022-12-07T09:42:33;47.05;;;20.90;;
8831;SDS011;4452;50.756;4.472;2022-12-07T09:45:05;47.22;;;20.75;;
8831;SDS011;4452;50.756;4.472;2022-12-07T09:47:32;46.13;;;18.98;;
8831;SDS011;4452;50.756;4.472;2022-12-07T09:50:05;54.85;;;20.52;;
8831;SDS011;4452;50.756;4.472;2022-12-07T09:52:38;33.65;;;15.52;;
8831;SDS011;4452;50.756;4.472;2022-12-07T09:55:10;50.63;;;18.35;;
8831;SDS011;4452;50.756;4.472;2022-12-07T09:57:38;47.22;;;18.10;;
8831;SDS011;4452;50.756;4.472;2022-12-07T10:00:05;51.88;;;19.58;;
8831;SDS011;4452;50.756;4.472;2022-12-07T10:02:41;44.78;;;19.40;;
8831;SDS011;4452;50.756;4.472;2022-12-07T10:08:03;42.28;;;19.00;;
8831;SDS011;4452;50.756;4.472;2022-12-07T10:10:32;51.85;;;20.30;;
8831;SDS011;4452;50.756;4.472;2022-12-07T10:15:46;49.30;;;19.73;;
8831;SDS011;4452;50.756;4.472;2022-12-07T10:26:33;30.70;;;15.25;;
8831;SDS011;4452;50.756;4.472;2022-12-07T10:29:20;27.17;;;13.95;;
8831;SDS011;4452;50.756;4.472;2022-12-07T10:32:00;38.17;;;15.70;;
8831;SDS011;4452;50.756;4.472;2022-12-07T10:34:33;33.47;;;17.30;;
8831;SDS011;4452;50.756;4.472;2022-12-07T10:37:33;34.25;;;17.10;;
8831;SDS011;4452;50.756;4.472;2022-12-07T10:39:54;42.20;;;16.10;;
8831;SDS011;4452;50.756;4.472;2022-12-07T10:42:23;39.80;;;18.48;;
8831;SDS011;4452;50.756;4.472;2022-12-07T10:53:46;29.60;;;15.13;;
8831;SDS011;4452;50.756;4.472;2022-12-07T10:56:46;28.88;;;14.50;;
8831;SDS011;4452;50.756;4.472;2022-12-07T11:02:22;32.50;;;13.70;;
8831;SDS011;4452;50.756;4.472;2022-12-07T11:07:51;23.83;;;10.02;;
8831;SDS011;4452;50.756;4.472;2022-12-07T11:13:16;26.88;;;11.88;;
8831;SDS011;4452;50.756;4.472;2022-12-07T11:21:31;24.70;;;10.25;;
8831;SDS011;4452;50.756;4.472;2022-12-07T11:24:17;22.20;;;10.88;;
8831;SDS011;4452;50.756;4.472;2022-12-07T11:35:13;17.45;;;8.25;;
8831;SDS011;4452;50.756;4.472;2022-12-07T11:37:44;18.02;;;9.32;;
8831;SDS011;4452;50.756;4.472;2022-12-07T11:42:49;16.77;;;9.35;;
8831;SDS011;4452;50.756;4.472;2022-12-07T11:45:26;19.30;;;9.23;;
8831;SDS011;4452;50.756;4.472;2022-12-07T11:53:22;16.92;;;8.48;;
8831;SDS011;4452;50.756;4.472;2022-12-07T11:55:57;18.88;;;7.88;;
8831;SDS011;4452;50.756;4.472;2022-12-07T12:04:29;18.38;;;8.85;;
8831;SDS011;4452;50.756;4.472;2022-12-07T12:07:02;18.30;;;8.75;;
8831;SDS011;4452;50.756;4.472;2022-12-07T12:09:42;17.75;;;9.25;;
8831;SDS011;4452;50.756;4.472;2022-12-07T12:12:31;22.27;;;9.15;;
8831;SDS011;4452;50.756;4.472;2022-12-07T12:15:23;16.23;;;9.77;;
8831;SDS011;4452;50.756;4.472;2022-12-07T12:20:48;19.05;;;10.65;;
8831;SDS011;4452;50.756;4.472;2022-12-07T12:23:22;18.80;;;8.35;;
8831;SDS011;4452;50.756;4.472;2022-12-07T12:26:03;19.35;;;8.13;;
8831;SDS011;4452;50.756;4.472;2022-12-07T12:31:34;17.27;;;7.78;;
8831;SDS011;4452;50.756;4.472;2022-12-07T12:34:00;15.07;;;8.77;;
8831;SDS011;4452;50.756;4.472;2022-12-07T12:44:38;11.15;;;5.93;;
8831;SDS011;4452;50.756;4.472;2022-12-07T12:46:56;10.85;;;6.70;;
8831;SDS011;4452;50.756;4.472;2022-12-07T12:54:38;9.82;;;5.30;;
8831;SDS011;4452;50.756;4.472;2022-12-07T12:57:24;7.18;;;4.57;;
8831;SDS011;4452;50.756;4.472;2022-12-07T13:15:43;5.22;;;3.17;;
8831;SDS011;4452;50.756;4.472;2022-12-07T13:31:41;8.85;;;3.38;;
8831;SDS011;4452;50.756;4.472;2022-12-07T13:34:34;8.35;;;3.08;;
8831;SDS011;4452;50.756;4.472;2022-12-07T13:37:10;6.68;;;3.58;;
8831;SDS011;4452;50.756;4.472;2022-12-07T13:39:55;7.85;;;3.10;;
8831;SDS011;4452;50.756;4.472;2022-12-07T13:42:27;4.18;;;2.85;;
8831;SDS011;4452;50.756;4.472;2022-12-07T13:44:59;8.55;;;3.38;;
8831;SDS011;4452;50.756;4.472;2022-12-07T13:47:46;13.07;;;3.65;;
8831;SDS011;4452;50.756;4.472;2022-12-07T13:50:22;7.50;;;3.83;;
8831;SDS011;4452;50.756;4.472;2022-12-07T13:52:54;10.27;;;3.72;;
8831;SDS011;4452;50.756;4.472;2022-12-07T13:55:21;12.13;;;4.13;;
8831;SDS011;4452;50.756;4.472;2022-12-07T13:57:47;7.95;;;3.85;;
8831;SDS011;4452;50.756;4.472;2022-12-07T14:00:16;8.45;;;4.30;;
8831;SDS011;4452;50.756;4.472;2022-12-07T14:05:28;10.15;;;4.10;;
8831;SDS011;4452;50.756;4.472;2022-12-07T14:07:56;8.85;;;3.92;;
8831;SDS011;4452;50.756;4.472;2022-12-07T14:10:27;8.18;;;4.40;;
8831;SDS011;4452;50.756;4.472;2022-12-07T14:12:55;9.88;;;3.75;;
8831;SDS011;4452;50.756;4.472;2022-12-07T14:15:23;12.73;;;4.10;;
8831;SDS011;4452;50.756;4.472;2022-12-07T14:17:54;6.72;;;3.78;;
8831;SDS011;4452;50.756;4.472;2022-12-07T14:20:35;9.77;;;4.65;;
8831;SDS011;4452;50.756;4.472;2022-12-07T14:23:04;8.80;;;4.45;;
8831;SDS011;4452;50.756;4.472;2022-12-07T14:25:48;8.57;;;4.82;;
8831;SDS011;4452;50.756;4.472;2022-12-07T14:28:26;6.72;;;4.22;;
8831;SDS011;4452;50.756;4.472;2022-12-07T14:30:57;10.27;;;4.55;;
8831;SDS011;4452;50.756;4.472;2022-12-07T14:33:26;7.05;;;4.82;;
8831;SDS011;4452;50.756;4.472;2022-12-07T14:35:55;9.38;;;5.18;;
8831;SDS011;4452;50.756;4.472;2022-12-07T14:38:23;9.35;;;4.72;;
8831;SDS011;4452;50.756;4.472;2022-12-07T14:40:53;11.68;;;6.20;;
8831;SDS011;4452;50.756;4.472;2022-12-07T14:43:19;13.05;;;5.95;;
8831;SDS011;4452;50.756;4.472;2022-12-07T14:45:45;9.63;;;5.90;;
8831;SDS011;4452;50.756;4.472;2022-12-07T14:48:12;16.77;;;6.90;;
8831;SDS011;4452;50.756;4.472;2022-12-07T14:50:49;9.90;;;6.47;;
8831;SDS011;4452;50.756;4.472;2022-12-07T14:53:18;8.52;;;5.30;;
8831;SDS011;4452;50.756;4.472;2022-12-07T14:55:48;8.43;;;4.68;;
8831;SDS011;4452;50.756;4.472;2022-12-07T14:58:14;6.78;;;4.30;;
8831;SDS011;4452;50.756;4.472;2022-12-07T15:00:42;6.32;;;4.25;;
8831;SDS011;4452;50.756;4.472;2022-12-07T15:03:07;8.70;;;4.57;;
8831;SDS011;4452;50.756;4.472;2022-12-07T15:05:33;9.82;;;5.47;;
8831;SDS011;4452;50.756;4.472;2022-12-07T15:07:59;7.00;;;3.70;;
8831;SDS011;4452;50.756;4.472;2022-12-07T15:10:27;5.22;;;2.90;;
8831;SDS011;4452;50.756;4.472;2022-12-07T15:13:00;4.57;;;2.38;;
8831;SDS011;4452;50.756;4.472;2022-12-07T15:15:50;5.15;;;2.88;;
8831;SDS011;4452;50.756;4.472;2022-12-07T15:18:16;5.47;;;2.40;;
8831;SDS011;4452;50.756;4.472;2022-12-07T15:20:43;2.42;;;2.10;;
8831;SDS011;4452;50.756;4.472;2022-12-07T15:23:09;12.43;;;4.63;;
8831;SDS011;4452;50.756;4.472;2022-12-07T15:25:36;12.75;;;5.50;;
8831;SDS011;4452;50.756;4.472;2022-12-07T15:28:04;11.63;;;4.38;;
8831;SDS011;4452;50.756;4.472;2022-12-07T15:30:30;9.38;;;5.10;;
8831;SDS011;4452;50.756;4.472;2022-12-07T15:32:56;16.40;;;5.13;;
8831;SDS011;4452;50.756;4.472;2022-12-07T15:35:21;8.00;;;5.00;;
8831;SDS011;4452;50.756;4.472;2022-12-07T15:37:47;11.30;;;5.22;;
8831;SDS011;4452;50.756;4.472;2022-12-07T15:40:13;12.70;;;5.18;;
8831;SDS011;4452;50.756;4.472;2022-12-07T15:42:39;12.98;;;4.55;;
8831;SDS011;4452;50.756;4.472;2022-12-07T15:45:06;9.25;;;5.05;;
8831;SDS011;4452;50.756;4.472;2022-12-07T15:47:42;10.60;;;4.65;;
8831;SDS011;4452;50.756;4.472;2022-12-07T15:50:14;7.32;;;4.22;;
8831;SDS011;4452;50.756;4.472;2022-12-07T15:52:41;7.88;;;5.05;;
8831;SDS011;4452;50.756;4.472;2022-12-07T15:55:08;10.35;;;3.75;;
8831;SDS011;4452;50.756;4.472;2022-12-07T15:57:35;7.18;;;4.10;;
8831;SDS011;4452;50.756;4.472;2022-12-07T16:00:03;9.27;;;5.68;;
8831;SDS011;4452;50.756;4.472;2022-12-07T16:02:30;7.53;;;4.55;;
8831;SDS011;4452;50.756;4.472;2022-12-07T16:04:55;15.20;;;6.93;;
8831;SDS011;4452;50.756;4.472;2022-12-07T16:07:21;14.60;;;6.43;;
8831;SDS011;4452;50.756;4.472;2022-12-07T16:09:47;13.35;;;6.57;;
8831;SDS011;4452;50.756;4.472;2022-12-07T16:12:15;22.98;;;9.27;;
8831;SDS011;4452;50.756;4.472;2022-12-07T16:14:41;22.23;;;9.10;;
8831;SDS011;4452;50.756;4.472;2022-12-07T16:17:08;16.48;;;8.65;;
8831;SDS011;4452;50.756;4.472;2022-12-07T16:19:35;18.13;;;8.90;;
8831;SDS011;4452;50.756;4.472;2022-12-07T16:22:02;14.18;;;8.13;;
8831;SDS011;4452;50.756;4.472;2022-12-07T16:24:37;19.45;;;10.20;;
8831;SDS011;4452;50.756;4.472;2022-12-07T16:27:05;23.90;;;12.95;;
8831;SDS011;4452;50.756;4.472;2022-12-07T16:29:31;25.83;;;11.07;;
8831;SDS011;4452;50.756;4.472;2022-12-07T16:31:56;14.15;;;9.73;;
8831;SDS011;4452;50.756;4.472;2022-12-07T16:34:22;26.23;;;11.25;;
8831;SDS011;4452;50.756;4.472;2022-12-07T16:36:47;18.23;;;10.65;;
8831;SDS011;4452;50.756;4.472;2022-12-07T16:39:13;21.02;;;11.00;;
8831;SDS011;4452;50.756;4.472;2022-12-07T16:41:39;23.27;;;11.32;;
8831;SDS011;4452;50.756;4.472;2022-12-07T16:44:05;15.95;;;9.07;;
8831;SDS011;4452;50.756;4.472;2022-12-07T16:46:32;23.13;;;10.50;;
8831;SDS011;4452;50.756;4.472;2022-12-07T16:49:00;20.67;;;10.43;;
8831;SDS011;4452;50.756;4.472;2022-12-07T16:51:26;20.50;;;10.90;;
8831;SDS011;4452;50.756;4.472;2022-12-07T16:53:52;18.70;;;11.13;;
8831;SDS011;4452;50.756;4.472;2022-12-07T16:56:18;17.25;;;9.38;;
8831;SDS011;4452;50.756;4.472;2022-12-07T16:58:45;19.25;;;10.90;;
8831;SDS011;4452;50.756;4.472;2022-12-07T17:01:13;21.65;;;10.85;;
8831;SDS011;4452;50.756;4.472;2022-12-07T17:03:43;19.25;;;10.95;;
8831;SDS011;4452;50.756;4.472;2022-12-07T17:08:40;14.32;;;9.25;;
8831;SDS011;4452;50.756;4.472;2022-12-07T17:11:39;17.20;;;9.77;;
8831;SDS011;4452;50.756;4.472;2022-12-07T17:13:58;15.25;;;9.90;;
8831;SDS011;4452;50.756;4.472;2022-12-07T17:16:42;17.85;;;10.98;;
8831;SDS011;4452;50.756;4.472;2022-12-07T17:19:10;22.95;;;9.93;;
8831;SDS011;4452;50.756;4.472;2022-12-07T17:21:37;18.55;;;9.57;;
8831;SDS011;4452;50.756;4.472;2022-12-07T17:24:04;20.90;;;10.30;;